This is the latest recevied weather packets stored in our database for station/object SP4MAZ-13. If no packets are shown the sender has not sent any weather packets the latest 10 day(s).
| Time | Temp. | Humidity | Pressure | Rain* | Wind** | Luminosity | Snow |
|---|---|---|---|---|---|---|---|
| 1778081053 | 20.56° C | 60% | 2147.4 hPa | - | - | - | - |
| 1778080749 | 19.44° C | 66% | 2147.4 hPa | - | - | - | - |
| 1778080446 | 19.44° C | 67% | 2147.4 hPa | - | - | - | - |
| 1778080142 | 18.89° C | 70% | 2147.4 hPa | - | - | - | - |
| 1778079838 | 18.89° C | 73% | 2147.4 hPa | - | - | - | - |
| 1778079535 | 19.44° C | 68% | 2147.4 hPa | - | - | - | - |
| 1778079233 | 20° C | 62% | 2147.4 hPa | - | - | - | - |
| 1778078932 | 20° C | 64% | 2147.4 hPa | - | - | - | - |
| 1778078628 | 19.44° C | 66% | 2147.4 hPa | - | - | - | - |
| 1778078325 | 18.89° C | 65% | 2147.4 hPa | - | - | - | - |
| 1778078021 | 18.89° C | 65% | 2147.4 hPa | - | - | - | - |
| 1778077718 | 20° C | 60% | 2147.4 hPa | - | - | - | - |
| 1778077417 | 19.44° C | 58% | 2147.4 hPa | - | - | - | - |
| 1778077113 | 19.44° C | 59% | 2147.4 hPa | - | - | - | - |
| 1778076810 | 20° C | 59% | 2147.4 hPa | - | - | - | - |
| 1778076506 | 19.44° C | 60% | 2147.4 hPa | - | - | - | - |
| 1778076203 | 18.33° C | 67% | 2147.4 hPa | - | - | - | - |
| 1778075900 | 18.33° C | 64% | 2147.4 hPa | - | - | - | - |
| 1778075599 | 19.44° C | 63% | 2147.4 hPa | - | - | - | - |
| 1778075295 | 20° C | 55% | 2147.4 hPa | - | - | - | - |
| 1778074992 | 19.44° C | 61% | 2147.4 hPa | - | - | - | - |
| 1778074688 | 18.33° C | 66% | 2147.4 hPa | - | - | - | - |
| 1778074385 | 18.89° C | 64% | 2147.4 hPa | - | - | - | - |
| 1778074081 | 21.11° C | 54% | 2147.4 hPa | - | - | - | - |
| 1778073780 | 21.11° C | 53% | 2147.4 hPa | - | - | - | - |
* Rain since midnight (hover to see other rain measurements)
** Current wind speed in m/s (hover to see current wind gust speed)